createdAt,value
2018-09-01T00:01:01.165Z,12.4
2018-09-01T00:02:08.114Z,12.4
2018-09-01T00:03:15.334Z,12.4
2018-09-01T00:04:22.551Z,12.4
2018-09-01T00:05:29.758Z,12.4
2018-09-01T00:06:36.988Z,12.3
2018-09-01T00:07:44.206Z,12.3
2018-09-01T00:08:51.426Z,12.3
2018-09-01T00:09:58.648Z,12.3
2018-09-01T00:11:05.889Z,12.2
2018-09-01T00:12:13.174Z,12.2
2018-09-01T00:13:20.123Z,12.1
2018-09-01T00:14:27.330Z,12.1
2018-09-01T00:15:34.556Z,12.1
2018-09-01T00:16:41.784Z,12.1
2018-09-01T00:17:48.735Z,12.1
2018-09-01T00:18:55.954Z,12.1
2018-09-01T00:20:03.168Z,12.1
2018-09-01T00:21:10.403Z,12.1
2018-09-01T00:22:17.602Z,12.1
2018-09-01T00:23:24.823Z,12
2018-09-01T00:24:32.035Z,12
2018-09-01T00:25:39.251Z,12
2018-09-01T00:26:46.482Z,12
2018-09-01T00:27:53.699Z,12
2018-09-01T00:29:00.652Z,11.9
2018-09-01T00:30:07.595Z,11.9
2018-09-01T00:31:14.810Z,11.9
2018-09-01T00:32:22.019Z,11.9
2018-09-01T00:33:28.963Z,11.9
2018-09-01T00:34:36.177Z,11.8
2018-09-01T00:35:43.388Z,11.8
2018-09-01T00:36:50.337Z,11.8
2018-09-01T00:37:57.571Z,11.8
2018-09-01T00:39:04.796Z,11.8
2018-09-01T00:40:12.010Z,11.7
2018-09-01T00:41:19.228Z,11.7
2018-09-01T00:42:26.172Z,11.7
2018-09-01T00:43:33.388Z,11.6
2018-09-01T00:44:40.607Z,11.6
2018-09-01T00:45:47.542Z,11.6
2018-09-01T00:46:54.768Z,11.6
2018-09-01T00:48:01.993Z,11.5
2018-09-01T00:49:08.926Z,11.5
2018-09-01T00:50:16.143Z,11.5
2018-09-01T00:51:23.355Z,11.5
2018-09-01T00:52:30.571Z,11.4
2018-09-01T00:53:37.801Z,11.4
2018-09-01T00:54:45.024Z,11.4
2018-09-01T00:55:52.252Z,11.4
2018-09-01T00:56:59.462Z,11.4
2018-09-01T00:58:06.696Z,11.4
2018-09-01T00:59:13.916Z,11.4
2018-09-01T01:00:21.134Z,11.4
2018-09-01T01:01:28.353Z,11.4
2018-09-01T01:02:35.562Z,11.3
2018-09-01T01:03:42.775Z,11.3
2018-09-01T01:04:49.727Z,11.3
2018-09-01T01:05:56.950Z,11.3
2018-09-01T01:07:04.180Z,11.3
2018-09-01T01:08:11.399Z,11.3
2018-09-01T01:09:18.625Z,11.3
2018-09-01T01:10:25.861Z,11.3
2018-09-01T01:11:33.071Z,11.2
2018-09-01T01:12:40.285Z,11.2
2018-09-01T01:13:47.496Z,11.2
2018-09-01T01:14:54.740Z,11.2
2018-09-01T01:16:01.694Z,11.2
2018-09-01T01:17:08.904Z,11.2
2018-09-01T01:18:16.130Z,11.2
2018-09-01T01:19:23.347Z,11.2
2018-09-01T01:20:30.570Z,11.2
2018-09-01T01:21:37.802Z,11.2
2018-09-01T01:22:45.026Z,11.2
2018-09-01T01:23:52.239Z,11.2
2018-09-01T01:24:59.195Z,11.2
2018-09-01T01:26:06.408Z,11.2
2018-09-01T01:27:13.349Z,11.2
2018-09-01T01:28:20.561Z,11.1
2018-09-01T01:29:27.805Z,11.1
2018-09-01T01:30:35.023Z,11.1
2018-09-01T01:31:41.681Z,11.1
2018-09-01T01:32:48.900Z,11.1
2018-09-01T01:33:56.129Z,11.1
2018-09-01T01:35:03.348Z,11.1
2018-09-01T01:36:10.584Z,11.1
2018-09-01T01:37:17.800Z,11.1
2018-09-01T01:38:25.019Z,11
2018-09-01T01:39:32.450Z,11.1
2018-09-01T01:40:39.667Z,11.1
2018-09-01T01:41:46.884Z,11.1
2018-09-01T01:42:54.116Z,11.1
2018-09-01T01:44:01.341Z,11.1
2018-09-01T01:45:08.298Z,11.1
2018-09-01T01:46:15.232Z,11.1
2018-09-01T01:47:22.193Z,11
2018-09-01T01:48:29.406Z,11.1
2018-09-01T01:49:36.756Z,11
2018-09-01T01:50:44.144Z,11
2018-09-01T01:51:51.095Z,11
2018-09-01T01:52:58.311Z,11
2018-09-01T01:54:05.521Z,11
2018-09-01T01:55:12.739Z,11
2018-09-01T01:56:19.952Z,11
2018-09-01T01:57:27.170Z,11
2018-09-01T01:58:34.388Z,11
2018-09-01T01:59:41.326Z,11
2018-09-01T02:00:48.264Z,11
2018-09-01T02:01:55.177Z,11
2018-09-01T02:03:02.392Z,11
2018-09-01T02:04:09.673Z,10.9
2018-09-01T02:05:16.888Z,10.9
2018-09-01T02:06:24.113Z,10.9
2018-09-01T02:07:31.327Z,10.9
2018-09-01T02:08:38.542Z,10.9
2018-09-01T02:09:45.756Z,10.9
2018-09-01T02:10:52.968Z,10.9
2018-09-01T02:12:00.201Z,10.9
2018-09-01T02:13:07.416Z,10.9
2018-09-01T02:14:14.626Z,10.9
2018-09-01T02:15:21.844Z,10.9
2018-09-01T02:16:29.072Z,10.9
2018-09-01T02:17:36.286Z,10.8
2018-09-01T02:18:43.503Z,10.8
2018-09-01T02:19:50.720Z,10.8
2018-09-01T02:20:57.933Z,10.8
2018-09-01T02:22:05.140Z,10.8
2018-09-01T02:23:12.363Z,10.7
2018-09-01T02:24:19.578Z,10.7
2018-09-01T02:25:26.811Z,10.7
2018-09-01T02:26:34.026Z,10.7
2018-09-01T02:27:41.243Z,10.7
2018-09-01T02:28:48.457Z,10.7
2018-09-01T02:29:55.670Z,10.7
2018-09-01T02:31:02.892Z,10.7
2018-09-01T02:32:10.124Z,10.7
2018-09-01T02:33:17.338Z,10.8
2018-09-01T02:34:24.567Z,10.8
2018-09-01T02:35:31.506Z,10.9
2018-09-01T02:36:38.742Z,10.9
2018-09-01T02:37:45.960Z,10.9
2018-09-01T02:38:53.173Z,10.9
2018-09-01T02:40:00.387Z,10.9
2018-09-01T02:41:07.603Z,10.9
2018-09-01T02:42:14.829Z,10.9
2018-09-01T02:43:22.046Z,10.9
2018-09-01T02:44:29.256Z,11
2018-09-01T02:45:36.468Z,11
2018-09-01T02:46:43.694Z,11
2018-09-01T02:47:50.961Z,11
2018-09-01T02:48:58.167Z,11.1
2018-09-01T02:50:05.386Z,11.1
2018-09-01T02:51:12.605Z,11
2018-09-01T02:52:19.821Z,11
2018-09-01T02:53:27.034Z,11
2018-09-01T02:54:34.446Z,11
2018-09-01T02:55:41.388Z,11
2018-09-01T02:56:48.343Z,11
2018-09-01T02:57:55.556Z,11
2018-09-01T02:59:02.498Z,10.9
2018-09-01T03:00:09.713Z,10.9
2018-09-01T03:01:16.951Z,10.9
2018-09-01T03:02:24.171Z,10.9
2018-09-01T03:03:31.385Z,10.9
2018-09-01T03:04:38.607Z,10.9
2018-09-01T03:05:45.550Z,10.9
2018-09-01T03:06:52.769Z,10.9
2018-09-01T03:07:59.979Z,10.9
2018-09-01T03:09:07.191Z,10.9
2018-09-01T03:10:14.405Z,10.9
2018-09-01T03:11:21.622Z,10.9
2018-09-01T03:12:28.842Z,10.9
2018-09-01T03:13:36.054Z,10.8
2018-09-01T03:14:43.276Z,10.8
2018-09-01T03:15:50.499Z,10.8
2018-09-01T03:16:57.727Z,10.8
2018-09-01T03:18:04.938Z,10.7
2018-09-01T03:19:11.875Z,10.8
2018-09-01T03:20:19.145Z,10.8
2018-09-01T03:21:26.359Z,10.8
2018-09-01T03:22:33.593Z,10.8
2018-09-01T03:23:40.519Z,10.7
2018-09-01T03:24:47.730Z,10.7
2018-09-01T03:25:54.960Z,10.7
2018-09-01T03:27:01.897Z,10.7
2018-09-01T03:28:09.126Z,10.8
2018-09-01T03:29:16.079Z,10.7
2018-09-01T03:30:23.014Z,10.7
2018-09-01T03:31:30.231Z,10.8
2018-09-01T03:32:37.445Z,10.7
2018-09-01T03:33:44.665Z,10.7
2018-09-01T03:34:51.880Z,10.7
2018-09-01T03:35:59.094Z,10.7
2018-09-01T03:37:06.324Z,10.7
2018-09-01T03:38:13.537Z,10.7
2018-09-01T03:39:20.748Z,10.7
2018-09-01T03:40:27.970Z,10.6
2018-09-01T03:41:35.200Z,10.6
2018-09-01T03:42:42.421Z,10.6
2018-09-01T03:43:49.647Z,10.6
2018-09-01T03:44:56.860Z,10.6
2018-09-01T03:46:04.074Z,10.6
2018-09-01T03:47:11.289Z,10.6
2018-09-01T03:48:18.496Z,10.6
2018-09-01T03:49:25.710Z,10.6
2018-09-01T03:50:32.926Z,10.6
2018-09-01T03:51:40.135Z,10.6
2018-09-01T03:52:47.354Z,10.6
2018-09-01T03:53:54.559Z,10.6
2018-09-01T03:55:01.781Z,10.7
2018-09-01T03:56:08.992Z,10.7
2018-09-01T03:57:16.206Z,10.7
2018-09-01T03:58:23.420Z,10.7
2018-09-01T03:59:30.628Z,10.6
2018-09-01T04:00:37.849Z,10.6
2018-09-01T04:01:45.060Z,10.6
2018-09-01T04:02:52.274Z,10.6
2018-09-01T04:03:59.505Z,10.6
2018-09-01T04:05:06.166Z,10.6
2018-09-01T04:06:13.393Z,10.6
2018-09-01T04:07:20.613Z,10.6
2018-09-01T04:08:27.823Z,10.6
2018-09-01T04:09:34.759Z,10.6
2018-09-01T04:10:41.698Z,10.6
2018-09-01T04:11:48.912Z,10.6
2018-09-01T04:12:56.127Z,10.5
2018-09-01T04:14:03.346Z,10.5
2018-09-01T04:15:10.557Z,10.5
2018-09-01T04:16:17.781Z,10.5
2018-09-01T04:17:24.996Z,10.5
2018-09-01T04:18:31.935Z,10.5
2018-09-01T04:19:39.144Z,10.5
2018-09-01T04:20:46.361Z,10.6
2018-09-01T04:21:53.571Z,10.6
2018-09-01T04:23:00.784Z,10.6
2018-09-01T04:24:07.997Z,10.5
2018-09-01T04:25:15.215Z,10.6
2018-09-01T04:26:22.421Z,10.6
2018-09-01T04:27:29.663Z,10.5
2018-09-01T04:28:36.591Z,10.5
2018-09-01T04:29:43.818Z,10.5
2018-09-01T04:30:51.035Z,10.5
2018-09-01T04:31:58.303Z,10.5
2018-09-01T04:33:05.402Z,10.5
2018-09-01T04:34:12.614Z,10.5
2018-09-01T04:35:19.827Z,10.5
2018-09-01T04:36:27.058Z,10.6
2018-09-01T04:37:34.286Z,10.6
2018-09-01T04:38:41.513Z,10.6
2018-09-01T04:39:48.722Z,10.6
2018-09-01T04:40:55.949Z,10.6
2018-09-01T04:42:03.165Z,10.6
2018-09-01T04:43:10.432Z,10.6
2018-09-01T04:44:17.647Z,10.6
2018-09-01T04:45:24.867Z,10.6
2018-09-01T04:46:32.080Z,10.6
2018-09-01T04:47:39.338Z,10.6
2018-09-01T04:48:46.549Z,10.7
2018-09-01T04:49:53.769Z,10.6
2018-09-01T04:51:00.978Z,10.6
2018-09-01T04:52:08.192Z,10.6
2018-09-01T04:53:15.401Z,10.6
2018-09-01T04:54:22.616Z,10.6
2018-09-01T04:55:29.830Z,10.6
2018-09-01T04:56:37.047Z,10.6
2018-09-01T04:57:44.264Z,10.6
2018-09-01T04:58:51.203Z,10.6
2018-09-01T04:59:58.414Z,10.6
2018-09-01T05:01:05.952Z,10.6
2018-09-01T05:02:13.609Z,10.6
2018-09-01T05:03:20.822Z,10.7
2018-09-01T05:04:28.039Z,10.6
2018-09-01T05:05:35.251Z,10.6
2018-09-01T05:06:42.465Z,10.7
2018-09-01T05:07:49.410Z,10.6
2018-09-01T05:08:56.621Z,10.7
2018-09-01T05:10:03.564Z,10.7
2018-09-01T05:11:10.791Z,10.7
2018-09-01T05:12:17.998Z,10.7
2018-09-01T05:13:24.950Z,10.8
2018-09-01T05:14:32.163Z,10.8
2018-09-01T05:15:39.380Z,10.8
2018-09-01T05:16:46.589Z,10.8
2018-09-01T05:17:53.806Z,10.9
2018-09-01T05:19:01.022Z,10.9
2018-09-01T05:20:08.238Z,11
2018-09-01T05:21:15.175Z,11.1
2018-09-01T05:22:22.405Z,11.1
2018-09-01T05:23:29.619Z,11.1
2018-09-01T05:24:36.852Z,11.2
2018-09-01T05:25:44.064Z,11.2
2018-09-01T05:26:51.284Z,11.3
2018-09-01T05:27:57.953Z,11.3
2018-09-01T05:29:05.166Z,11.3
2018-09-01T05:30:12.388Z,11.4
2018-09-01T05:31:19.342Z,11.4
2018-09-01T05:32:26.280Z,11.5
2018-09-01T05:33:33.507Z,11.5
2018-09-01T05:34:40.452Z,11.5
2018-09-01T05:35:47.662Z,11.6
2018-09-01T05:36:54.575Z,11.6
2018-09-01T05:38:01.788Z,11.7
2018-09-01T05:39:09.004Z,11.7
2018-09-01T05:40:15.933Z,11.8
2018-09-01T05:41:23.153Z,11.8
2018-09-01T05:42:30.367Z,11.9
2018-09-01T05:43:37.685Z,12
2018-09-01T05:44:44.913Z,12
2018-09-01T05:45:52.128Z,12.1
2018-09-01T05:46:59.341Z,12.1
2018-09-01T05:48:06.276Z,12.1
2018-09-01T05:49:13.217Z,12.2
2018-09-01T05:50:20.160Z,12.2
2018-09-01T05:51:27.093Z,12.2
2018-09-01T05:52:34.313Z,12.2
2018-09-01T05:53:41.526Z,12.2
2018-09-01T05:54:48.746Z,12.2
2018-09-01T05:55:55.989Z,12.2
2018-09-01T05:57:02.934Z,12.2
2018-09-01T05:58:10.161Z,12.3
2018-09-01T05:59:17.378Z,12.3
2018-09-01T06:00:24.662Z,12.3
2018-09-01T06:01:31.928Z,12.3
2018-09-01T06:02:39.141Z,12.3
2018-09-01T06:03:46.079Z,12.3
2018-09-01T06:04:53.032Z,12.3
2018-09-01T06:06:00.450Z,12.3
2018-09-01T06:07:08.013Z,12.4
2018-09-01T06:08:15.231Z,12.4
2018-09-01T06:09:22.469Z,12.5
2018-09-01T06:10:29.686Z,12.6
2018-09-01T06:11:36.903Z,12.6
2018-09-01T06:12:44.121Z,12.7
2018-09-01T06:13:51.333Z,12.7
2018-09-01T06:14:58.554Z,12.7
2018-09-01T06:16:05.768Z,12.7
2018-09-01T06:17:12.979Z,12.9
2018-09-01T06:18:20.201Z,12.9
2018-09-01T06:19:27.423Z,12.9
2018-09-01T06:20:49.283Z,13
2018-09-01T06:21:56.504Z,13
2018-09-01T06:23:03.725Z,13
2018-09-01T06:24:10.933Z,13.1
2018-09-01T06:25:18.163Z,13.1
2018-09-01T06:26:25.369Z,13.2
2018-09-01T06:27:32.311Z,13.3
2018-09-01T06:28:39.528Z,13.3
2018-09-01T06:29:46.741Z,13.3
2018-09-01T06:30:53.966Z,13.3
2018-09-01T06:32:00.896Z,13.3
2018-09-01T06:33:08.110Z,13.4
2018-09-01T06:34:15.366Z,13.5
2018-09-01T06:35:22.323Z,13.7
2018-09-01T06:36:29.538Z,13.8
2018-09-01T06:37:36.851Z,13.9
2018-09-01T06:38:44.032Z,14
2018-09-01T06:39:51.249Z,14.1
2018-09-01T06:40:58.482Z,14.2
2018-09-01T06:42:05.697Z,14.2
2018-09-01T06:43:13.046Z,14.1
2018-09-01T06:44:20.257Z,14.3
2018-09-01T06:45:27.475Z,14.4
2018-09-01T06:46:34.703Z,14.4
2018-09-01T06:47:41.655Z,14.5
2018-09-01T06:48:48.593Z,14.7
2018-09-01T06:49:55.813Z,14.9
2018-09-01T06:51:03.043Z,14.8
2018-09-01T06:52:24.912Z,14.7
2018-09-01T06:53:32.129Z,14.5
2018-09-01T06:54:39.078Z,14.6
2018-09-01T06:55:46.304Z,14.6
2018-09-01T06:56:53.544Z,14.9
2018-09-01T06:58:00.485Z,15.1
2018-09-01T06:59:07.438Z,15.2
2018-09-01T07:00:14.386Z,15.2
2018-09-01T07:01:21.606Z,15
2018-09-01T07:02:28.558Z,14.9
2018-09-01T07:03:35.772Z,14.7
2018-09-01T07:04:42.988Z,14.5
2018-09-01T07:05:50.203Z,14.3
2018-09-01T07:06:57.421Z,14.2
2018-09-01T07:08:04.636Z,14
2018-09-01T07:09:11.571Z,14
2018-09-01T07:10:18.518Z,14
2018-09-01T07:11:25.737Z,14
2018-09-01T07:12:32.952Z,14
2018-09-01T07:13:40.169Z,14
2018-09-01T07:14:47.388Z,14.1
2018-09-01T07:15:54.606Z,14.2
2018-09-01T07:17:01.822Z,14.4
2018-09-01T07:18:09.044Z,14.7
2018-09-01T07:19:16.256Z,14.8
2018-09-01T07:20:23.467Z,14.9
2018-09-01T07:21:30.719Z,15
2018-09-01T07:22:37.666Z,15.1
2018-09-01T07:23:44.884Z,15.1
2018-09-01T07:24:52.095Z,15.2
2018-09-01T07:25:59.039Z,15.3
2018-09-01T07:27:06.253Z,15.5
2018-09-01T07:28:13.471Z,15.6
2018-09-01T07:29:20.409Z,15.6
2018-09-01T07:30:28.117Z,15.9
2018-09-01T07:31:36.798Z,16.1
2018-09-01T07:32:45.418Z,16.2
2018-09-01T07:33:52.656Z,16.3
2018-09-01T07:34:59.879Z,16.6
2018-09-01T07:36:07.110Z,16.5
2018-09-01T07:37:14.336Z,16.6
2018-09-01T07:38:21.555Z,16.7
2018-09-01T07:39:28.774Z,16.8
2018-09-01T07:40:36.000Z,16.7
2018-09-01T07:41:43.221Z,16.6
2018-09-01T07:42:50.438Z,16.5
2018-09-01T07:43:57.120Z,16.5
2018-09-01T07:45:04.346Z,16.5
2018-09-01T07:46:11.562Z,16.5
2018-09-01T07:47:18.511Z,16.7
2018-09-01T07:48:25.743Z,17
2018-09-01T07:49:32.969Z,17
2018-09-01T07:50:40.194Z,17.3
2018-09-01T07:51:47.421Z,17.6
2018-09-01T07:52:54.644Z,17.8
2018-09-01T07:54:01.859Z,17.7
2018-09-01T07:55:09.079Z,17.7
2018-09-01T07:56:16.647Z,17.8
2018-09-01T07:57:24.337Z,17.6
2018-09-01T07:58:31.023Z,17.5
2018-09-01T07:59:38.257Z,17.6
2018-09-01T08:00:45.469Z,17.8
2018-09-01T08:01:52.695Z,17.8
2018-09-01T08:02:59.628Z,17.9
2018-09-01T08:04:06.873Z,17.9
2018-09-01T08:05:14.094Z,18.1
2018-09-01T08:06:21.308Z,18.4
2018-09-01T08:07:28.680Z,18.5
2018-09-01T08:08:36.250Z,18.7
2018-09-01T08:09:43.202Z,18.6
2018-09-01T08:10:50.420Z,18.7
2018-09-01T08:11:57.641Z,18.8
2018-09-01T08:13:04.859Z,18.9
2018-09-01T08:14:12.367Z,19.1
2018-09-01T08:15:19.947Z,19.4
2018-09-01T08:16:27.167Z,19.1
2018-09-01T08:17:34.387Z,19
2018-09-01T08:18:41.627Z,18.6
2018-09-01T08:19:48.849Z,18.7
2018-09-01T08:20:56.066Z,18.9
2018-09-01T08:22:03.291Z,18.8
2018-09-01T08:23:10.459Z,18.7
2018-09-01T08:24:17.679Z,18.6
2018-09-01T08:25:24.929Z,18.7
2018-09-01T08:26:31.871Z,18.5
2018-09-01T08:27:39.317Z,18.4
2018-09-01T08:28:46.538Z,18.6
2018-09-01T08:29:53.989Z,18.7
2018-09-01T08:31:01.209Z,18.7
2018-09-01T08:32:08.425Z,18.6
2018-09-01T08:33:15.372Z,18.9
2018-09-01T08:34:22.611Z,19.2
2018-09-01T08:35:29.556Z,19.3
2018-09-01T08:36:36.523Z,19.5
2018-09-01T08:37:43.746Z,19.8
2018-09-01T22:00:06.522Z,16.5
2018-09-01T22:01:13.757Z,16.5
2018-09-01T22:02:20.973Z,16.5
2018-09-01T22:03:28.189Z,16.5
2018-09-01T22:04:35.411Z,16.4
2018-09-01T22:05:42.635Z,16.4
2018-09-01T22:06:49.850Z,16.4
2018-09-01T22:07:57.072Z,16.4
2018-09-01T22:09:04.288Z,16.4
2018-09-01T22:10:11.507Z,16.4
2018-09-01T22:11:18.728Z,16.4
2018-09-01T22:12:25.956Z,16.4
2018-09-01T22:13:33.175Z,16.4
2018-09-01T22:14:40.388Z,16.4
2018-09-01T22:15:47.604Z,16.4
2018-09-01T22:16:54.820Z,16.4
2018-09-01T22:18:02.052Z,16.4
2018-09-01T22:19:09.279Z,16.4
2018-09-01T22:20:16.500Z,16.4
2018-09-01T22:21:23.739Z,16.4
2018-09-01T22:22:30.681Z,16.4
2018-09-01T22:23:37.631Z,16.4
2018-09-01T22:24:44.848Z,16.4
2018-09-01T22:25:51.790Z,16.4
2018-09-01T22:26:59.022Z,16.3
2018-09-01T22:28:05.960Z,16.3
2018-09-01T22:29:13.179Z,16.3
2018-09-01T22:30:20.414Z,16.2
2018-09-01T22:31:27.896Z,16.2
2018-09-01T22:32:35.485Z,16.1
2018-09-01T22:33:42.430Z,16.1
2018-09-01T22:34:49.657Z,16.1
2018-09-01T22:35:56.877Z,16.1
2018-09-01T22:37:04.114Z,16
2018-09-01T22:38:11.338Z,16
2018-09-01T22:39:18.283Z,16
2018-09-01T22:40:25.512Z,16.1
2018-09-01T22:41:32.735Z,16
2018-09-01T22:42:39.962Z,16.1
2018-09-01T22:43:46.912Z,16.1
2018-09-01T22:44:54.130Z,16.1
2018-09-01T22:46:01.089Z,16.2
2018-09-01T22:47:08.311Z,16.1
2018-09-01T22:48:15.540Z,16.1
2018-09-01T22:49:22.763Z,16.1
2018-09-01T22:50:30.013Z,16.1
2018-09-01T22:51:37.255Z,16.1
2018-09-01T22:52:44.475Z,16.1
2018-09-01T22:53:51.694Z,16.1
2018-09-01T22:54:58.638Z,16.1
2018-09-01T22:56:05.855Z,16
2018-09-01T22:57:12.809Z,16
2018-09-01T22:58:20.064Z,16
2018-09-01T22:59:27.296Z,16
2018-09-01T23:00:34.514Z,16
2018-09-01T23:01:41.734Z,16
2018-09-01T23:02:48.403Z,16
2018-09-01T23:03:55.352Z,16
2018-09-01T23:05:02.568Z,15.9
2018-09-01T23:06:09.792Z,16
2018-09-01T23:07:17.006Z,15.9
2018-09-01T23:08:24.456Z,15.9
2018-09-01T23:09:31.377Z,15.9
2018-09-01T23:10:38.601Z,15.9
2018-09-01T23:11:45.814Z,15.9
2018-09-01T23:12:53.052Z,15.8
2018-09-01T23:13:59.718Z,15.8
2018-09-01T23:15:06.959Z,15.8
2018-09-01T23:16:14.190Z,15.9
2018-09-01T23:17:21.426Z,15.8
2018-09-01T23:18:28.646Z,15.8
2018-09-01T23:19:35.592Z,15.8
2018-09-01T23:20:42.810Z,15.8
2018-09-01T23:21:50.023Z,15.8
2018-09-01T23:22:57.245Z,15.8
2018-09-01T23:24:04.476Z,15.8
2018-09-01T23:25:11.418Z,15.8
2018-09-01T23:26:18.650Z,15.7
2018-09-01T23:27:25.865Z,15.7
2018-09-01T23:28:33.095Z,15.7
2018-09-01T23:29:40.320Z,15.7
2018-09-01T23:30:47.534Z,15.7
2018-09-01T23:31:54.752Z,15.7
2018-09-01T23:33:01.969Z,15.7
2018-09-01T23:34:09.184Z,15.7
2018-09-01T23:35:16.402Z,15.7
2018-09-01T23:36:23.615Z,15.7
2018-09-01T23:37:30.845Z,15.7
2018-09-01T23:38:38.070Z,15.7
2018-09-01T23:39:45.298Z,15.7
2018-09-01T23:40:52.508Z,15.7
2018-09-01T23:41:59.725Z,15.7
2018-09-01T23:43:06.667Z,15.6
2018-09-01T23:44:13.892Z,15.6
2018-09-01T23:45:21.107Z,15.6
2018-09-01T23:46:28.317Z,15.6
2018-09-01T23:47:35.538Z,15.6
2018-09-01T23:48:42.752Z,15.6
2018-09-01T23:49:49.971Z,15.6
2018-09-01T23:50:56.919Z,15.6
2018-09-01T23:52:04.135Z,15.6
2018-09-01T23:53:11.371Z,15.6
2018-09-01T23:54:18.587Z,15.6
2018-09-01T23:55:25.827Z,15.5
2018-09-01T23:56:33.035Z,15.5
2018-09-01T23:57:40.255Z,15.5
2018-09-01T23:58:47.470Z,15.5
2018-09-01T23:59:54.407Z,15.5
